Cabinet, Idaho
Current Conditions -  °F | °C
As of 10:15 AM on Sunday 25 Jan 2015 (Local Time) from KSZT Reporting Station
Haze Haze  
Wind Chill: 36°   Ceiling: 1700
Heat Index: 39°   Visibility: 1.2mi
Dew Point: 39°   Wind: 5mph
Humidity: 100%   Direction: 180°S
Pressure: 30.24"   Gusts: NA
Location:  48.029°N, 116.307°W
Report Text: KSZT 251815Z AUTO 18004KT 1 1/4SM BR OVC017 04/04 A3024 RMK AO2 VIS 1/2V5
Loading
Personal Weather Stations






























Interactive Weather Map New forecast layout! Learn more

10-Day Weather Forecast

Advertisements
Track Severe Weather on mobile